sensor_id;sensor_type;location;lat;lon;timestamp;P1;durP1;ratioP1;P2;durP2;ratioP2
10715;SDS011;5409;42.620;23.316;2022-10-16T00:01:06;3.90;;;3.50;;
10715;SDS011;5409;42.620;23.316;2022-10-16T00:03:34;6.47;;;4.50;;
10715;SDS011;5409;42.620;23.316;2022-10-16T00:06:01;4.63;;;3.50;;
10715;SDS011;5409;42.620;23.316;2022-10-16T00:08:28;6.95;;;4.10;;
10715;SDS011;5409;42.620;23.316;2022-10-16T00:10:59;8.02;;;3.85;;
10715;SDS011;5409;42.620;23.316;2022-10-16T00:13:26;7.47;;;3.88;;
10715;SDS011;5409;42.620;23.316;2022-10-16T00:15:54;3.83;;;3.42;;
10715;SDS011;5409;42.620;23.316;2022-10-16T00:18:23;4.63;;;3.42;;
10715;SDS011;5409;42.620;23.316;2022-10-16T00:20:51;4.68;;;4.13;;
10715;SDS011;5409;42.620;23.316;2022-10-16T00:23:18;7.13;;;4.15;;
10715;SDS011;5409;42.620;23.316;2022-10-16T00:25:45;3.55;;;3.22;;
10715;SDS011;5409;42.620;23.316;2022-10-16T00:28:21;8.52;;;3.70;;
10715;SDS011;5409;42.620;23.316;2022-10-16T00:30:48;5.07;;;3.67;;
10715;SDS011;5409;42.620;23.316;2022-10-16T00:33:15;4.05;;;3.42;;
10715;SDS011;5409;42.620;23.316;2022-10-16T00:35:43;8.80;;;4.18;;
10715;SDS011;5409;42.620;23.316;2022-10-16T00:38:10;7.35;;;4.07;;
10715;SDS011;5409;42.620;23.316;2022-10-16T00:40:37;5.32;;;4.13;;
10715;SDS011;5409;42.620;23.316;2022-10-16T00:43:07;4.57;;;4.10;;
10715;SDS011;5409;42.620;23.316;2022-10-16T00:45:38;6.85;;;3.75;;
10715;SDS011;5409;42.620;23.316;2022-10-16T00:48:06;5.30;;;3.88;;
10715;SDS011;5409;42.620;23.316;2022-10-16T00:50:39;8.40;;;3.97;;
10715;SDS011;5409;42.620;23.316;2022-10-16T00:53:10;4.40;;;3.88;;
10715;SDS011;5409;42.620;23.316;2022-10-16T00:55:38;7.20;;;5.40;;
10715;SDS011;5409;42.620;23.316;2022-10-16T00:58:05;8.63;;;4.85;;
10715;SDS011;5409;42.620;23.316;2022-10-16T01:00:32;6.65;;;4.35;;
10715;SDS011;5409;42.620;23.316;2022-10-16T01:02:59;5.68;;;4.32;;
10715;SDS011;5409;42.620;23.316;2022-10-16T01:05:28;10.73;;;4.82;;
10715;SDS011;5409;42.620;23.316;2022-10-16T01:08:01;5.38;;;4.88;;
10715;SDS011;5409;42.620;23.316;2022-10-16T01:10:38;5.88;;;5.28;;
10715;SDS011;5409;42.620;23.316;2022-10-16T01:13:07;4.65;;;4.18;;
10715;SDS011;5409;42.620;23.316;2022-10-16T01:15:37;7.43;;;4.60;;
10715;SDS011;5409;42.620;23.316;2022-10-16T01:18:10;6.45;;;4.13;;
10715;SDS011;5409;42.620;23.316;2022-10-16T01:20:42;4.63;;;3.83;;
10715;SDS011;5409;42.620;23.316;2022-10-16T01:23:19;4.15;;;3.72;;
10715;SDS011;5409;42.620;23.316;2022-10-16T01:26:03;4.75;;;3.83;;
10715;SDS011;5409;42.620;23.316;2022-10-16T01:28:41;6.30;;;4.10;;
10715;SDS011;5409;42.620;23.316;2022-10-16T01:31:15;5.93;;;4.25;;
10715;SDS011;5409;42.620;23.316;2022-10-16T01:33:45;6.25;;;3.90;;
10715;SDS011;5409;42.620;23.316;2022-10-16T01:36:18;6.43;;;3.85;;
10715;SDS011;5409;42.620;23.316;2022-10-16T01:38:51;3.55;;;3.25;;
10715;SDS011;5409;42.620;23.316;2022-10-16T01:41:23;4.57;;;3.72;;
10715;SDS011;5409;42.620;23.316;2022-10-16T01:43:56;4.72;;;3.70;;
10715;SDS011;5409;42.620;23.316;2022-10-16T01:46:27;8.57;;;4.20;;
10715;SDS011;5409;42.620;23.316;2022-10-16T01:48:58;5.38;;;4.00;;
10715;SDS011;5409;42.620;23.316;2022-10-16T01:51:26;6.47;;;3.92;;
10715;SDS011;5409;42.620;23.316;2022-10-16T01:53:56;6.43;;;4.15;;
10715;SDS011;5409;42.620;23.316;2022-10-16T01:56:26;5.50;;;3.85;;
10715;SDS011;5409;42.620;23.316;2022-10-16T01:58:57;6.28;;;4.63;;
10715;SDS011;5409;42.620;23.316;2022-10-16T02:01:27;5.65;;;4.43;;
10715;SDS011;5409;42.620;23.316;2022-10-16T02:03:58;5.85;;;4.47;;
10715;SDS011;5409;42.620;23.316;2022-10-16T02:06:30;5.50;;;4.00;;
10715;SDS011;5409;42.620;23.316;2022-10-16T02:08:58;6.82;;;4.32;;
10715;SDS011;5409;42.620;23.316;2022-10-16T02:11:25;7.90;;;5.07;;
10715;SDS011;5409;42.620;23.316;2022-10-16T02:13:53;9.90;;;5.00;;
10715;SDS011;5409;42.620;23.316;2022-10-16T02:16:31;5.78;;;4.38;;
10715;SDS011;5409;42.620;23.316;2022-10-16T02:18:59;6.47;;;4.70;;
10715;SDS011;5409;42.620;23.316;2022-10-16T02:21:28;4.85;;;3.75;;
10715;SDS011;5409;42.620;23.316;2022-10-16T02:24:00;5.50;;;3.95;;
10715;SDS011;5409;42.620;23.316;2022-10-16T02:26:30;5.57;;;4.47;;
10715;SDS011;5409;42.620;23.316;2022-10-16T02:29:04;5.53;;;4.82;;
10715;SDS011;5409;42.620;23.316;2022-10-16T02:31:35;6.28;;;4.32;;
10715;SDS011;5409;42.620;23.316;2022-10-16T02:34:07;7.38;;;4.00;;
10715;SDS011;5409;42.620;23.316;2022-10-16T02:36:37;7.40;;;4.53;;
10715;SDS011;5409;42.620;23.316;2022-10-16T02:39:05;5.40;;;3.95;;
10715;SDS011;5409;42.620;23.316;2022-10-16T02:41:33;5.13;;;4.55;;
10715;SDS011;5409;42.620;23.316;2022-10-16T02:44:00;5.18;;;3.80;;
10715;SDS011;5409;42.620;23.316;2022-10-16T02:46:28;5.93;;;4.47;;
10715;SDS011;5409;42.620;23.316;2022-10-16T02:48:55;7.57;;;4.90;;
10715;SDS011;5409;42.620;23.316;2022-10-16T02:51:22;7.03;;;4.93;;
10715;SDS011;5409;42.620;23.316;2022-10-16T02:53:48;6.22;;;4.43;;
10715;SDS011;5409;42.620;23.316;2022-10-16T02:56:15;7.20;;;5.00;;
10715;SDS011;5409;42.620;23.316;2022-10-16T02:58:42;5.90;;;5.30;;
10715;SDS011;5409;42.620;23.316;2022-10-16T03:01:08;5.72;;;5.13;;
10715;SDS011;5409;42.620;23.316;2022-10-16T03:03:38;8.23;;;5.38;;
10715;SDS011;5409;42.620;23.316;2022-10-16T03:06:05;6.15;;;4.90;;
10715;SDS011;5409;42.620;23.316;2022-10-16T03:08:32;7.20;;;5.18;;
10715;SDS011;5409;42.620;23.316;2022-10-16T03:10:58;6.57;;;5.80;;
10715;SDS011;5409;42.620;23.316;2022-10-16T03:13:25;7.50;;;5.82;;
10715;SDS011;5409;42.620;23.316;2022-10-16T03:15:52;7.18;;;5.10;;
10715;SDS011;5409;42.620;23.316;2022-10-16T03:18:19;6.07;;;5.43;;
10715;SDS011;5409;42.620;23.316;2022-10-16T03:20:47;6.22;;;5.20;;
10715;SDS011;5409;42.620;23.316;2022-10-16T03:23:13;7.20;;;5.30;;
10715;SDS011;5409;42.620;23.316;2022-10-16T03:25:40;11.13;;;6.07;;
10715;SDS011;5409;42.620;23.316;2022-10-16T03:28:07;8.40;;;6.03;;
10715;SDS011;5409;42.620;23.316;2022-10-16T03:30:34;10.00;;;6.30;;
10715;SDS011;5409;42.620;23.316;2022-10-16T03:33:00;8.75;;;6.18;;
10715;SDS011;5409;42.620;23.316;2022-10-16T03:35:27;10.15;;;6.95;;
10715;SDS011;5409;42.620;23.316;2022-10-16T03:37:56;11.20;;;7.10;;
10715;SDS011;5409;42.620;23.316;2022-10-16T03:40:22;11.35;;;7.82;;
10715;SDS011;5409;42.620;23.316;2022-10-16T03:42:49;14.75;;;8.27;;
10715;SDS011;5409;42.620;23.316;2022-10-16T03:45:16;19.55;;;10.98;;
10715;SDS011;5409;42.620;23.316;2022-10-16T03:47:43;16.58;;;11.18;;
10715;SDS011;5409;42.620;23.316;2022-10-16T03:50:09;15.65;;;11.18;;
10715;SDS011;5409;42.620;23.316;2022-10-16T03:52:36;18.40;;;10.88;;
10715;SDS011;5409;42.620;23.316;2022-10-16T03:55:05;15.98;;;10.50;;
10715;SDS011;5409;42.620;23.316;2022-10-16T03:57:32;17.17;;;10.13;;
10715;SDS011;5409;42.620;23.316;2022-10-16T03:59:59;22.30;;;14.45;;
10715;SDS011;5409;42.620;23.316;2022-10-16T04:02:26;12.88;;;7.53;;
10715;SDS011;5409;42.620;23.316;2022-10-16T04:04:52;11.90;;;8.32;;
10715;SDS011;5409;42.620;23.316;2022-10-16T04:07:19;13.25;;;7.20;;
10715;SDS011;5409;42.620;23.316;2022-10-16T04:09:46;8.93;;;6.80;;
10715;SDS011;5409;42.620;23.316;2022-10-16T04:12:14;7.80;;;5.95;;
10715;SDS011;5409;42.620;23.316;2022-10-16T04:14:40;8.88;;;6.38;;
10715;SDS011;5409;42.620;23.316;2022-10-16T04:17:07;10.35;;;8.70;;
10715;SDS011;5409;42.620;23.316;2022-10-16T04:19:34;8.13;;;6.20;;
10715;SDS011;5409;42.620;23.316;2022-10-16T04:22:00;8.50;;;6.13;;
10715;SDS011;5409;42.620;23.316;2022-10-16T04:24:27;7.05;;;5.45;;
10715;SDS011;5409;42.620;23.316;2022-10-16T04:26:54;9.38;;;6.22;;
10715;SDS011;5409;42.620;23.316;2022-10-16T04:29:22;8.73;;;5.95;;
10715;SDS011;5409;42.620;23.316;2022-10-16T04:31:49;7.60;;;5.68;;
10715;SDS011;5409;42.620;23.316;2022-10-16T04:34:15;7.28;;;6.07;;
10715;SDS011;5409;42.620;23.316;2022-10-16T04:36:42;12.20;;;6.50;;
10715;SDS011;5409;42.620;23.316;2022-10-16T04:39:09;9.88;;;6.63;;
10715;SDS011;5409;42.620;23.316;2022-10-16T04:41:36;12.27;;;6.25;;
10715;SDS011;5409;42.620;23.316;2022-10-16T04:44:02;8.07;;;6.45;;
10715;SDS011;5409;42.620;23.316;2022-10-16T04:46:30;11.38;;;6.97;;
10715;SDS011;5409;42.620;23.316;2022-10-16T04:48:57;10.48;;;6.85;;
10715;SDS011;5409;42.620;23.316;2022-10-16T04:51:24;11.32;;;7.90;;
10715;SDS011;5409;42.620;23.316;2022-10-16T04:53:52;9.95;;;7.22;;
10715;SDS011;5409;42.620;23.316;2022-10-16T04:56:19;12.98;;;7.82;;
10715;SDS011;5409;42.620;23.316;2022-10-16T04:58:46;8.32;;;6.68;;
10715;SDS011;5409;42.620;23.316;2022-10-16T05:01:13;9.50;;;6.90;;
10715;SDS011;5409;42.620;23.316;2022-10-16T05:03:41;8.63;;;6.65;;
10715;SDS011;5409;42.620;23.316;2022-10-16T05:06:08;9.23;;;6.72;;
10715;SDS011;5409;42.620;23.316;2022-10-16T05:08:34;9.38;;;7.05;;
10715;SDS011;5409;42.620;23.316;2022-10-16T05:11:01;9.90;;;7.03;;
10715;SDS011;5409;42.620;23.316;2022-10-16T05:13:28;10.15;;;6.90;;
10715;SDS011;5409;42.620;23.316;2022-10-16T05:15:55;10.82;;;7.88;;
10715;SDS011;5409;42.620;23.316;2022-10-16T05:18:22;10.50;;;8.40;;
10715;SDS011;5409;42.620;23.316;2022-10-16T05:20:50;7.70;;;6.13;;
10715;SDS011;5409;42.620;23.316;2022-10-16T05:23:17;8.85;;;6.93;;
10715;SDS011;5409;42.620;23.316;2022-10-16T05:25:43;8.80;;;6.72;;
10715;SDS011;5409;42.620;23.316;2022-10-16T05:28:18;12.20;;;6.95;;
10715;SDS011;5409;42.620;23.316;2022-10-16T05:30:45;10.13;;;6.75;;
10715;SDS011;5409;42.620;23.316;2022-10-16T05:33:11;8.90;;;7.05;;
10715;SDS011;5409;42.620;23.316;2022-10-16T05:35:38;10.77;;;8.35;;
10715;SDS011;5409;42.620;23.316;2022-10-16T05:38:06;9.80;;;7.47;;
10715;SDS011;5409;42.620;23.316;2022-10-16T05:40:33;12.25;;;8.25;;
10715;SDS011;5409;42.620;23.316;2022-10-16T05:43:00;9.23;;;7.10;;
10715;SDS011;5409;42.620;23.316;2022-10-16T05:45:27;9.02;;;6.80;;
10715;SDS011;5409;42.620;23.316;2022-10-16T05:47:53;12.30;;;8.10;;
10715;SDS011;5409;42.620;23.316;2022-10-16T05:50:20;10.05;;;7.07;;
10715;SDS011;5409;42.620;23.316;2022-10-16T05:52:47;9.93;;;6.75;;
10715;SDS011;5409;42.620;23.316;2022-10-16T05:55:15;8.35;;;6.88;;
10715;SDS011;5409;42.620;23.316;2022-10-16T05:57:41;8.90;;;6.82;;
10715;SDS011;5409;42.620;23.316;2022-10-16T06:00:09;9.55;;;6.97;;
10715;SDS011;5409;42.620;23.316;2022-10-16T06:02:36;9.55;;;7.25;;
10715;SDS011;5409;42.620;23.316;2022-10-16T06:05:03;10.52;;;7.85;;
10715;SDS011;5409;42.620;23.316;2022-10-16T06:07:33;9.52;;;7.60;;
10715;SDS011;5409;42.620;23.316;2022-10-16T06:10:01;8.35;;;7.28;;
10715;SDS011;5409;42.620;23.316;2022-10-16T06:12:30;12.00;;;7.97;;
10715;SDS011;5409;42.620;23.316;2022-10-16T06:14:57;7.85;;;7.05;;
10715;SDS011;5409;42.620;23.316;2022-10-16T06:17:23;7.97;;;6.72;;
10715;SDS011;5409;42.620;23.316;2022-10-16T06:19:50;9.32;;;7.10;;
10715;SDS011;5409;42.620;23.316;2022-10-16T06:22:17;12.15;;;8.30;;
10715;SDS011;5409;42.620;23.316;2022-10-16T06:24:43;12.02;;;9.20;;
10715;SDS011;5409;42.620;23.316;2022-10-16T06:27:11;13.43;;;10.63;;
10715;SDS011;5409;42.620;23.316;2022-10-16T06:29:39;13.65;;;10.20;;
10715;SDS011;5409;42.620;23.316;2022-10-16T06:32:08;11.25;;;8.73;;
10715;SDS011;5409;42.620;23.316;2022-10-16T06:34:34;10.57;;;7.95;;
10715;SDS011;5409;42.620;23.316;2022-10-16T06:37:01;10.30;;;8.73;;
10715;SDS011;5409;42.620;23.316;2022-10-16T06:39:28;12.65;;;8.75;;
10715;SDS011;5409;42.620;23.316;2022-10-16T06:41:54;9.65;;;8.10;;
10715;SDS011;5409;42.620;23.316;2022-10-16T06:44:21;9.77;;;8.77;;
10715;SDS011;5409;42.620;23.316;2022-10-16T06:46:49;10.93;;;8.38;;
10715;SDS011;5409;42.620;23.316;2022-10-16T06:49:16;11.32;;;9.55;;
10715;SDS011;5409;42.620;23.316;2022-10-16T06:51:47;12.30;;;8.93;;
10715;SDS011;5409;42.620;23.316;2022-10-16T06:54:14;11.02;;;9.35;;
10715;SDS011;5409;42.620;23.316;2022-10-16T06:56:42;9.95;;;8.77;;
10715;SDS011;5409;42.620;23.316;2022-10-16T06:59:09;11.10;;;9.55;;
10715;SDS011;5409;42.620;23.316;2022-10-16T07:01:39;14.95;;;10.40;;
10715;SDS011;5409;42.620;23.316;2022-10-16T07:04:07;13.38;;;10.15;;
10715;SDS011;5409;42.620;23.316;2022-10-16T07:06:34;15.65;;;11.90;;
10715;SDS011;5409;42.620;23.316;2022-10-16T07:09:02;16.90;;;11.25;;
10715;SDS011;5409;42.620;23.316;2022-10-16T07:11:30;18.40;;;11.00;;
10715;SDS011;5409;42.620;23.316;2022-10-16T07:13:57;14.75;;;10.60;;
10715;SDS011;5409;42.620;23.316;2022-10-16T07:16:26;15.95;;;9.80;;
10715;SDS011;5409;42.620;23.316;2022-10-16T07:18:54;14.70;;;9.32;;
10715;SDS011;5409;42.620;23.316;2022-10-16T07:21:25;17.10;;;8.57;;
10715;SDS011;5409;42.620;23.316;2022-10-16T07:23:54;9.40;;;8.23;;
10715;SDS011;5409;42.620;23.316;2022-10-16T07:26:22;11.18;;;7.53;;
10715;SDS011;5409;42.620;23.316;2022-10-16T07:28:49;10.13;;;7.38;;
10715;SDS011;5409;42.620;23.316;2022-10-16T07:31:17;10.38;;;7.10;;
10715;SDS011;5409;42.620;23.316;2022-10-16T07:33:45;8.55;;;6.43;;
10715;SDS011;5409;42.620;23.316;2022-10-16T07:36:13;8.70;;;6.72;;
10715;SDS011;5409;42.620;23.316;2022-10-16T07:38:44;12.50;;;6.97;;
10715;SDS011;5409;42.620;23.316;2022-10-16T07:41:12;9.13;;;6.55;;
10715;SDS011;5409;42.620;23.316;2022-10-16T07:43:45;7.80;;;6.40;;
10715;SDS011;5409;42.620;23.316;2022-10-16T07:46:12;7.22;;;6.50;;
10715;SDS011;5409;42.620;23.316;2022-10-16T07:48:39;6.53;;;5.93;;
10715;SDS011;5409;42.620;23.316;2022-10-16T07:51:12;7.13;;;5.55;;
10715;SDS011;5409;42.620;23.316;2022-10-16T07:53:40;10.02;;;6.07;;
10715;SDS011;5409;42.620;23.316;2022-10-16T07:56:11;11.82;;;6.25;;
10715;SDS011;5409;42.620;23.316;2022-10-16T07:58:38;8.15;;;6.63;;
10715;SDS011;5409;42.620;23.316;2022-10-16T08:01:06;8.68;;;5.88;;
10715;SDS011;5409;42.620;23.316;2022-10-16T08:03:34;8.07;;;6.78;;
10715;SDS011;5409;42.620;23.316;2022-10-16T08:06:06;7.95;;;6.05;;
10715;SDS011;5409;42.620;23.316;2022-10-16T08:08:44;9.23;;;5.68;;
10715;SDS011;5409;42.620;23.316;2022-10-16T08:11:12;7.55;;;6.07;;
10715;SDS011;5409;42.620;23.316;2022-10-16T08:13:42;6.85;;;5.20;;
10715;SDS011;5409;42.620;23.316;2022-10-16T08:16:12;6.50;;;5.30;;
10715;SDS011;5409;42.620;23.316;2022-10-16T08:18:43;6.65;;;5.90;;
10715;SDS011;5409;42.620;23.316;2022-10-16T08:21:13;7.20;;;5.70;;
10715;SDS011;5409;42.620;23.316;2022-10-16T08:23:41;12.10;;;5.85;;
10715;SDS011;5409;42.620;23.316;2022-10-16T08:26:09;6.38;;;5.65;;
10715;SDS011;5409;42.620;23.316;2022-10-16T08:28:38;6.10;;;5.38;;
10715;SDS011;5409;42.620;23.316;2022-10-16T08:31:05;9.82;;;5.50;;
10715;SDS011;5409;42.620;23.316;2022-10-16T08:33:33;11.02;;;6.28;;
10715;SDS011;5409;42.620;23.316;2022-10-16T08:36:01;7.40;;;5.88;;
10715;SDS011;5409;42.620;23.316;2022-10-16T08:38:28;8.32;;;6.30;;
10715;SDS011;5409;42.620;23.316;2022-10-16T08:40:55;6.82;;;5.97;;
10715;SDS011;5409;42.620;23.316;2022-10-16T08:43:47;9.13;;;6.93;;
10715;SDS011;5409;42.620;23.316;2022-10-16T08:46:36;6.88;;;5.43;;
10715;SDS011;5409;42.620;23.316;2022-10-16T08:49:10;7.72;;;4.90;;
10715;SDS011;5409;42.620;23.316;2022-10-16T08:51:39;5.15;;;4.65;;
10715;SDS011;5409;42.620;23.316;2022-10-16T08:54:21;5.80;;;3.95;;
10715;SDS011;5409;42.620;23.316;2022-10-16T08:56:54;7.25;;;4.30;;
10715;SDS011;5409;42.620;23.316;2022-10-16T08:59:23;8.48;;;3.63;;
10715;SDS011;5409;42.620;23.316;2022-10-16T09:01:50;5.55;;;3.83;;
10715;SDS011;5409;42.620;23.316;2022-10-16T09:04:34;4.28;;;3.13;;
10715;SDS011;5409;42.620;23.316;2022-10-16T09:07:13;4.65;;;4.07;;
10715;SDS011;5409;42.620;23.316;2022-10-16T09:09:56;3.80;;;3.50;;
10715;SDS011;5409;42.620;23.316;2022-10-16T09:12:31;6.28;;;3.65;;
10715;SDS011;5409;42.620;23.316;2022-10-16T09:15:11;7.57;;;4.63;;
10715;SDS011;5409;42.620;23.316;2022-10-16T09:17:46;5.72;;;4.13;;
10715;SDS011;5409;42.620;23.316;2022-10-16T09:20:24;7.55;;;4.05;;
10715;SDS011;5409;42.620;23.316;2022-10-16T09:23:00;3.72;;;3.25;;
10715;SDS011;5409;42.620;23.316;2022-10-16T09:25:38;5.57;;;3.67;;
10715;SDS011;5409;42.620;23.316;2022-10-16T09:28:07;3.90;;;3.50;;
10715;SDS011;5409;42.620;23.316;2022-10-16T09:30:36;5.70;;;3.83;;
10715;SDS011;5409;42.620;23.316;2022-10-16T09:33:04;5.10;;;3.72;;
10715;SDS011;5409;42.620;23.316;2022-10-16T09:35:32;3.60;;;3.20;;
10715;SDS011;5409;42.620;23.316;2022-10-16T09:38:03;5.95;;;3.47;;
10715;SDS011;5409;42.620;23.316;2022-10-16T09:40:32;5.60;;;3.47;;
10715;SDS011;5409;42.620;23.316;2022-10-16T09:43:03;3.25;;;2.95;;
10715;SDS011;5409;42.620;23.316;2022-10-16T09:45:56;5.68;;;3.22;;
10715;SDS011;5409;42.620;23.316;2022-10-16T09:48:25;4.60;;;3.33;;
10715;SDS011;5409;42.620;23.316;2022-10-16T09:50:58;4.00;;;3.28;;
10715;SDS011;5409;42.620;23.316;2022-10-16T09:53:26;4.65;;;3.40;;
10715;SDS011;5409;42.620;23.316;2022-10-16T09:56:05;6.18;;;3.28;;
10715;SDS011;5409;42.620;23.316;2022-10-16T09:58:32;5.35;;;3.05;;
10715;SDS011;5409;42.620;23.316;2022-10-16T10:01:00;5.97;;;3.42;;
10715;SDS011;5409;42.620;23.316;2022-10-16T10:03:35;6.15;;;3.42;;
10715;SDS011;5409;42.620;23.316;2022-10-16T10:06:06;4.38;;;3.22;;
10715;SDS011;5409;42.620;23.316;2022-10-16T10:08:52;3.38;;;3.08;;
10715;SDS011;5409;42.620;23.316;2022-10-16T10:14:14;8.82;;;3.38;;
10715;SDS011;5409;42.620;23.316;2022-10-16T10:16:49;5.20;;;3.10;;
10715;SDS011;5409;42.620;23.316;2022-10-16T10:19:18;4.95;;;3.10;;
10715;SDS011;5409;42.620;23.316;2022-10-16T10:21:46;4.53;;;3.03;;
10715;SDS011;5409;42.620;23.316;2022-10-16T10:24:13;4.38;;;2.90;;
10715;SDS011;5409;42.620;23.316;2022-10-16T10:26:44;4.38;;;2.90;;
10715;SDS011;5409;42.620;23.316;2022-10-16T10:29:18;5.22;;;2.97;;
10715;SDS011;5409;42.620;23.316;2022-10-16T10:31:56;4.03;;;2.90;;
10715;SDS011;5409;42.620;23.316;2022-10-16T10:34:40;3.03;;;2.65;;
10715;SDS011;5409;42.620;23.316;2022-10-16T10:37:22;3.38;;;2.40;;
10715;SDS011;5409;42.620;23.316;2022-10-16T10:39:59;3.65;;;2.50;;
10715;SDS011;5409;42.620;23.316;2022-10-16T10:42:35;5.03;;;2.50;;
10715;SDS011;5409;42.620;23.316;2022-10-16T10:45:18;6.75;;;2.50;;
10715;SDS011;5409;42.620;23.316;2022-10-16T10:48:03;3.00;;;2.30;;
10715;SDS011;5409;42.620;23.316;2022-10-16T10:50:41;3.72;;;2.47;;
10715;SDS011;5409;42.620;23.316;2022-10-16T10:53:19;6.55;;;2.97;;
10715;SDS011;5409;42.620;23.316;2022-10-16T10:55:59;3.40;;;2.70;;
10715;SDS011;5409;42.620;23.316;2022-10-16T10:58:39;2.63;;;2.33;;
10715;SDS011;5409;42.620;23.316;2022-10-16T11:01:39;2.88;;;2.53;;
10715;SDS011;5409;42.620;23.316;2022-10-16T11:07:30;4.97;;;2.03;;
10715;SDS011;5409;42.620;23.316;2022-10-16T11:10:02;2.88;;;2.17;;
10715;SDS011;5409;42.620;23.316;2022-10-16T11:12:36;2.72;;;2.15;;
10715;SDS011;5409;42.620;23.316;2022-10-16T11:15:11;2.55;;;2.28;;
10715;SDS011;5409;42.620;23.316;2022-10-16T11:17:44;4.53;;;2.72;;
10715;SDS011;5409;42.620;23.316;2022-10-16T11:20:18;8.40;;;2.53;;
10715;SDS011;5409;42.620;23.316;2022-10-16T11:22:50;4.95;;;2.97;;
10715;SDS011;5409;42.620;23.316;2022-10-16T11:25:20;4.65;;;2.63;;
10715;SDS011;5409;42.620;23.316;2022-10-16T11:27:50;7.57;;;2.40;;
10715;SDS011;5409;42.620;23.316;2022-10-16T11:30:24;4.03;;;2.42;;
10715;SDS011;5409;42.620;23.316;2022-10-16T11:33:04;4.18;;;2.20;;
10715;SDS011;5409;42.620;23.316;2022-10-16T11:35:47;6.10;;;2.33;;
10715;SDS011;5409;42.620;23.316;2022-10-16T11:38:20;3.30;;;2.40;;
10715;SDS011;5409;42.620;23.316;2022-10-16T11:40:56;5.45;;;2.20;;
10715;SDS011;5409;42.620;23.316;2022-10-16T11:43:28;2.65;;;2.42;;
10715;SDS011;5409;42.620;23.316;2022-10-16T11:46:01;3.55;;;2.20;;
10715;SDS011;5409;42.620;23.316;2022-10-16T11:48:32;3.00;;;2.03;;
10715;SDS011;5409;42.620;23.316;2022-10-16T11:51:06;3.25;;;2.53;;
10715;SDS011;5409;42.620;23.316;2022-10-16T11:53:44;7.30;;;2.85;;
10715;SDS011;5409;42.620;23.316;2022-10-16T11:56:13;4.13;;;2.90;;
10715;SDS011;5409;42.620;23.316;2022-10-16T11:58:46;3.40;;;2.92;;
10715;SDS011;5409;42.620;23.316;2022-10-16T12:01:21;4.28;;;2.90;;
10715;SDS011;5409;42.620;23.316;2022-10-16T12:03:56;4.45;;;3.17;;
10715;SDS011;5409;42.620;23.316;2022-10-16T12:06:33;2.70;;;2.33;;
10715;SDS011;5409;42.620;23.316;2022-10-16T12:09:05;2.97;;;2.20;;
10715;SDS011;5409;42.620;23.316;2022-10-16T12:11:36;3.75;;;2.38;;
10715;SDS011;5409;42.620;23.316;2022-10-16T12:16:53;5.60;;;2.20;;
10715;SDS011;5409;42.620;23.316;2022-10-16T12:19:23;4.40;;;2.67;;
10715;SDS011;5409;42.620;23.316;2022-10-16T12:21:51;3.45;;;2.03;;
10715;SDS011;5409;42.620;23.316;2022-10-16T12:24:23;3.30;;;2.13;;
10715;SDS011;5409;42.620;23.316;2022-10-16T12:26:57;3.97;;;1.67;;
10715;SDS011;5409;42.620;23.316;2022-10-16T12:29:28;2.05;;;1.83;;
10715;SDS011;5409;42.620;23.316;2022-10-16T12:31:59;3.85;;;1.80;;
10715;SDS011;5409;42.620;23.316;2022-10-16T12:34:27;2.28;;;1.67;;
10715;SDS011;5409;42.620;23.316;2022-10-16T12:37:07;2.70;;;1.52;;
10715;SDS011;5409;42.620;23.316;2022-10-16T12:39:38;2.00;;;1.60;;
10715;SDS011;5409;42.620;23.316;2022-10-16T12:42:17;2.30;;;1.60;;
10715;SDS011;5409;42.620;23.316;2022-10-16T12:44:47;3.25;;;1.80;;
10715;SDS011;5409;42.620;23.316;2022-10-16T12:47:19;2.03;;;1.75;;
10715;SDS011;5409;42.620;23.316;2022-10-16T12:49:49;2.38;;;1.65;;
10715;SDS011;5409;42.620;23.316;2022-10-16T12:52:23;2.45;;;1.60;;
10715;SDS011;5409;42.620;23.316;2022-10-16T12:54:55;3.47;;;2.15;;
10715;SDS011;5409;42.620;23.316;2022-10-16T12:57:30;2.28;;;1.65;;
10715;SDS011;5409;42.620;23.316;2022-10-16T13:00:09;2.13;;;1.92;;
10715;SDS011;5409;42.620;23.316;2022-10-16T13:02:51;2.83;;;1.70;;
10715;SDS011;5409;42.620;23.316;2022-10-16T13:05:57;3.15;;;1.90;;
10715;SDS011;5409;42.620;23.316;2022-10-16T13:08:39;2.88;;;1.70;;
10715;SDS011;5409;42.620;23.316;2022-10-16T13:11:25;2.10;;;1.65;;
10715;SDS011;5409;42.620;23.316;2022-10-16T13:14:14;1.92;;;1.80;;
10715;SDS011;5409;42.620;23.316;2022-10-16T13:16:55;2.67;;;1.92;;
10715;SDS011;5409;42.620;23.316;2022-10-16T13:19:29;4.05;;;2.60;;
10715;SDS011;5409;42.620;23.316;2022-10-16T13:22:05;6.07;;;2.35;;
10715;SDS011;5409;42.620;23.316;2022-10-16T13:24:45;4.00;;;2.30;;
10715;SDS011;5409;42.620;23.316;2022-10-16T13:27:29;2.50;;;2.00;;
10715;SDS011;5409;42.620;23.316;2022-10-16T13:30:09;2.38;;;2.17;;
10715;SDS011;5409;42.620;23.316;2022-10-16T13:32:39;3.28;;;2.60;;
10715;SDS011;5409;42.620;23.316;2022-10-16T13:35:18;3.42;;;2.30;;
10715;SDS011;5409;42.620;23.316;2022-10-16T13:37:46;2.30;;;2.10;;
10715;SDS011;5409;42.620;23.316;2022-10-16T13:40:17;2.88;;;2.42;;
10715;SDS011;5409;42.620;23.316;2022-10-16T13:42:47;3.25;;;2.05;;
10715;SDS011;5409;42.620;23.316;2022-10-16T13:45:17;5.55;;;2.45;;
10715;SDS011;5409;42.620;23.316;2022-10-16T13:47:45;3.15;;;2.70;;
10715;SDS011;5409;42.620;23.316;2022-10-16T13:50:12;3.92;;;2.30;;
10715;SDS011;5409;42.620;23.316;2022-10-16T13:52:40;3.10;;;2.33;;
10715;SDS011;5409;42.620;23.316;2022-10-16T13:55:10;8.00;;;2.20;;
10715;SDS011;5409;42.620;23.316;2022-10-16T13:57:37;7.55;;;2.78;;
10715;SDS011;5409;42.620;23.316;2022-10-16T14:00:18;2.63;;;2.33;;
10715;SDS011;5409;42.620;23.316;2022-10-16T14:02:49;4.10;;;2.95;;
10715;SDS011;5409;42.620;23.316;2022-10-16T14:05:18;2.95;;;2.60;;
10715;SDS011;5409;42.620;23.316;2022-10-16T14:07:47;4.18;;;2.38;;
10715;SDS011;5409;42.620;23.316;2022-10-16T14:10:20;5.80;;;2.97;;
10715;SDS011;5409;42.620;23.316;2022-10-16T14:12:56;3.83;;;2.10;;
10715;SDS011;5409;42.620;23.316;2022-10-16T14:15:25;2.20;;;1.95;;
10715;SDS011;5409;42.620;23.316;2022-10-16T14:17:53;3.22;;;2.28;;
10715;SDS011;5409;42.620;23.316;2022-10-16T14:20:20;2.80;;;2.10;;
10715;SDS011;5409;42.620;23.316;2022-10-16T14:22:57;2.88;;;2.42;;
10715;SDS011;5409;42.620;23.316;2022-10-16T14:25:27;5.20;;;2.60;;
10715;SDS011;5409;42.620;23.316;2022-10-16T14:28:02;3.85;;;2.35;;
10715;SDS011;5409;42.620;23.316;2022-10-16T14:30:32;3.60;;;2.33;;
10715;SDS011;5409;42.620;23.316;2022-10-16T14:33:02;5.40;;;2.25;;
10715;SDS011;5409;42.620;23.316;2022-10-16T14:35:30;3.70;;;2.05;;
10715;SDS011;5409;42.620;23.316;2022-10-16T14:37:59;4.65;;;2.40;;
10715;SDS011;5409;42.620;23.316;2022-10-16T14:40:28;3.17;;;2.30;;
10715;SDS011;5409;42.620;23.316;2022-10-16T14:42:56;2.42;;;1.98;;
10715;SDS011;5409;42.620;23.316;2022-10-16T14:45:24;3.40;;;2.22;;
10715;SDS011;5409;42.620;23.316;2022-10-16T14:47:55;2.97;;;2.38;;
10715;SDS011;5409;42.620;23.316;2022-10-16T14:50:24;3.30;;;2.47;;
10715;SDS011;5409;42.620;23.316;2022-10-16T14:52:51;4.22;;;2.38;;
10715;SDS011;5409;42.620;23.316;2022-10-16T14:55:17;2.30;;;2.10;;
10715;SDS011;5409;42.620;23.316;2022-10-16T14:57:45;3.25;;;2.40;;
10715;SDS011;5409;42.620;23.316;2022-10-16T15:00:14;3.03;;;2.20;;
10715;SDS011;5409;42.620;23.316;2022-10-16T15:02:43;3.10;;;2.38;;
10715;SDS011;5409;42.620;23.316;2022-10-16T15:05:13;3.63;;;2.35;;
10715;SDS011;5409;42.620;23.316;2022-10-16T15:07:42;2.63;;;2.42;;
10715;SDS011;5409;42.620;23.316;2022-10-16T15:10:09;3.10;;;2.10;;
10715;SDS011;5409;42.620;23.316;2022-10-16T15:12:37;3.28;;;2.33;;
10715;SDS011;5409;42.620;23.316;2022-10-16T15:15:11;3.85;;;2.67;;